createdAt,value
2022-08-22T00:01:44.055Z,6.40
2022-08-22T00:02:58.278Z,2.60
2022-08-22T00:03:06.939Z,5.10
2022-08-22T00:04:43.203Z,5.87
2022-08-22T00:07:42.829Z,6.23
2022-08-22T00:10:25.212Z,5.50
2022-08-22T00:13:10.119Z,5.57
2022-08-22T00:15:49.072Z,5.90
2022-08-22T00:18:45.959Z,6.23
2022-08-22T00:21:40.879Z,6.53
2022-08-22T00:24:58.673Z,7.20
2022-08-22T00:27:36.550Z,6.17
2022-08-22T00:30:15.891Z,6.27
2022-08-22T00:32:50.804Z,7.27
2022-08-22T00:35:26.861Z,7.10
2022-08-22T00:38:13.284Z,6.13
2022-08-22T00:41:14.544Z,6.93
2022-08-22T00:44:26.192Z,7.90
2022-08-22T00:50:45.118Z,8.60
2022-08-22T01:43:59.774Z,9.23
2022-08-22T01:46:40.485Z,8.60
2022-08-22T01:49:54.318Z,8.20
2022-08-22T01:52:43.165Z,9.73
2022-08-22T01:55:45.366Z,10.07
2022-08-22T01:58:33.794Z,8.50
2022-08-22T02:01:53.204Z,9.03
2022-08-22T02:04:59.183Z,10.20
2022-08-22T02:07:53.896Z,9.60
2022-08-22T02:10:51.532Z,10.97
2022-08-22T02:13:23.263Z,11.63
2022-08-22T02:16:03.541Z,9.87
2022-08-22T02:19:06.944Z,10.30
2022-08-22T02:22:07.113Z,10.77
2022-08-22T02:24:54.430Z,10.60
2022-08-22T02:27:50.552Z,12.03
2022-08-22T02:30:55.063Z,12.07
2022-08-22T02:33:32.600Z,12.60
2022-08-22T02:36:28.880Z,11.23
2022-08-22T02:39:25.089Z,10.70
2022-08-22T02:42:14.740Z,11.57
2022-08-22T02:45:19.999Z,11.70
2022-08-22T02:48:20.424Z,12.90
2022-08-22T02:51:29.993Z,11.60
2022-08-22T02:54:10.091Z,12.10
2022-08-22T02:56:50.776Z,10.87
2022-08-22T02:59:33.702Z,12.07
2022-08-22T03:02:37.647Z,12.10
2022-08-22T03:05:51.067Z,11.50
2022-08-22T03:08:25.537Z,12.87
2022-08-22T03:11:29.375Z,11.20
2022-08-22T03:14:35.642Z,12.17
2022-08-22T03:17:15.296Z,14.50
2022-08-22T03:20:10.521Z,9.90
2022-08-22T03:22:53.929Z,10.70
2022-08-22T03:25:55.431Z,10.70
2022-08-22T03:28:32.363Z,10.47
2022-08-22T03:31:21.084Z,9.83
2022-08-22T03:34:22.334Z,11.33
2022-08-22T03:37:16.706Z,11.07
2022-08-22T03:40:33.452Z,11.50
2022-08-22T03:43:41.977Z,10.83
2022-08-22T03:46:52.780Z,9.50
2022-08-22T03:49:44.903Z,10.43
2022-08-22T03:53:15.234Z,9.37
2022-08-22T03:56:16.529Z,9.00
2022-08-22T03:59:21.079Z,10.90
2022-08-22T04:02:42.575Z,8.17
2022-08-22T04:33:10.065Z,13.50
2022-08-22T04:35:43.069Z,12.90
2022-08-22T04:50:59.995Z,11.37
2022-08-22T04:54:26.788Z,12.03
2022-08-22T04:57:16.560Z,12.20
2022-08-22T04:59:44.056Z,11.03
2022-08-22T05:02:20.424Z,12.50
2022-08-22T05:04:59.526Z,11.80
2022-08-22T05:07:36.228Z,11.90
2022-08-22T05:10:21.014Z,12.47
2022-08-22T05:13:02.484Z,12.53
2022-08-22T05:15:38.128Z,12.83
2022-08-22T05:18:09.967Z,13.67
2022-08-22T05:20:40.102Z,11.30
2022-08-22T05:23:26.259Z,11.90
2022-08-22T05:25:57.655Z,11.40
2022-08-22T05:28:35.005Z,11.13
2022-08-22T05:31:09.883Z,11.80
2022-08-22T05:33:45.195Z,10.97
2022-08-22T05:36:22.880Z,10.53
2022-08-22T05:39:20.591Z,12.33
2022-08-22T05:41:49.372Z,11.53
2022-08-22T05:44:37.986Z,10.90
2022-08-22T05:47:23.028Z,9.67
2022-08-22T05:50:12.434Z,10.30
2022-08-22T05:53:30.622Z,9.97
2022-08-22T05:56:35.343Z,9.57
2022-08-22T05:59:15.053Z,9.57
2022-08-22T06:02:09.549Z,9.50
2022-08-22T06:04:58.740Z,10.53
2022-08-22T06:07:43.273Z,9.30
2022-08-22T06:10:42.881Z,10.00
2022-08-22T06:13:14.923Z,9.37
2022-08-22T06:16:02.574Z,8.40
2022-08-22T06:18:31.593Z,9.37
2022-08-22T06:21:06.857Z,8.00
2022-08-22T06:23:38.268Z,8.23
2022-08-22T06:26:06.660Z,9.17
2022-08-22T06:28:54.765Z,8.33
2022-08-22T06:31:32.091Z,8.27
2022-08-22T06:34:36.095Z,8.20
2022-08-22T06:37:07.239Z,7.47
2022-08-22T06:39:36.878Z,9.47
2022-08-22T06:42:15.838Z,7.97
2022-08-22T06:45:22.181Z,7.00
2022-08-22T06:48:00.227Z,6.57
2022-08-22T06:50:57.298Z,7.03
2022-08-22T06:53:45.884Z,6.53
2022-08-22T06:56:29.551Z,6.73
2022-08-22T06:58:59.326Z,6.70
2022-08-22T07:01:35.312Z,6.30
2022-08-22T07:04:08.316Z,5.73
2022-08-22T07:06:38.510Z,5.57
2022-08-22T07:09:07.333Z,5.60
2022-08-22T07:11:39.892Z,6.90
2022-08-22T07:14:14.385Z,5.63
2022-08-22T07:16:56.142Z,6.00
2022-08-22T07:19:32.360Z,5.53
2022-08-22T07:22:10.152Z,5.90
2022-08-22T07:24:39.300Z,5.00
2022-08-22T07:27:51.761Z,6.40
2022-08-22T07:30:27.706Z,5.97
2022-08-22T07:33:17.735Z,5.80
2022-08-22T07:36:01.557Z,6.80
2022-08-22T07:38:49.248Z,5.37
2022-08-22T07:41:22.477Z,5.10
2022-08-22T07:43:56.784Z,6.40
2022-08-22T07:46:35.869Z,5.03
2022-08-22T07:49:22.276Z,5.43
2022-08-22T07:51:56.804Z,5.70
2022-08-22T07:54:37.667Z,5.57
2022-08-22T07:57:33.371Z,5.50
2022-08-22T08:00:04.316Z,6.20
2022-08-22T08:02:31.599Z,6.07
2022-08-22T08:05:00.805Z,4.82
2022-08-22T08:07:29.388Z,4.82
2022-08-22T08:10:08.943Z,5.18
2022-08-22T08:12:44.463Z,4.78
2022-08-22T08:15:26.141Z,5.35
2022-08-22T08:17:59.895Z,4.28
2022-08-22T08:20:29.540Z,3.75
2022-08-22T08:22:59.354Z,3.30
2022-08-22T08:25:28.980Z,4.18
2022-08-22T08:28:17.022Z,3.45
2022-08-22T08:30:57.344Z,3.17
2022-08-22T08:33:29.253Z,2.72
2022-08-22T08:36:29.689Z,3.65
2022-08-22T08:39:25.806Z,2.67
2022-08-22T08:42:54.458Z,2.57
2022-08-22T08:46:10.809Z,3.13
2022-08-22T08:49:06.402Z,2.83
2022-08-22T08:52:32.164Z,2.97
2022-08-22T08:55:21.736Z,2.70
2022-08-22T08:58:43.461Z,2.83
2022-08-22T09:01:49.902Z,3.53
2022-08-22T09:04:55.055Z,4.30
2022-08-22T09:07:42.310Z,3.50
2022-08-22T09:10:39.936Z,3.37
2022-08-22T09:13:57.708Z,3.37
2022-08-22T09:16:57.350Z,4.00
2022-08-22T09:19:46.054Z,3.33
2022-08-22T09:23:23.736Z,3.35
2022-08-22T09:26:18.782Z,2.95
2022-08-22T09:28:54.053Z,2.88
2022-08-22T09:31:57.008Z,3.13
2022-08-22T09:35:08.539Z,2.50
2022-08-22T09:38:04.941Z,1.95
2022-08-22T09:41:15.115Z,2.20
2022-08-22T09:44:08.186Z,2.25
2022-08-22T09:47:24.939Z,1.85
2022-08-22T09:50:29.551Z,1.35
2022-08-22T09:53:10.488Z,1.40
2022-08-22T09:56:15.507Z,1.20
2022-08-22T09:59:06.860Z,1.50
2022-08-22T10:02:15.436Z,1.35
2022-08-22T10:05:07.541Z,2.05
2022-08-22T10:08:06.170Z,1.02
2022-08-22T10:10:51.701Z,1.10
2022-08-22T10:14:08.094Z,0.90
2022-08-22T10:17:27.695Z,1.23
2022-08-22T10:20:16.745Z,1.02
2022-08-22T10:23:15.646Z,1.13
2022-08-22T10:25:50.035Z,1.58
2022-08-22T10:29:00.030Z,1.00
2022-08-22T10:31:59.066Z,1.40
2022-08-22T10:34:36.444Z,0.85
2022-08-22T10:37:30.690Z,1.02
2022-08-22T10:40:08.611Z,1.63
2022-08-22T10:43:14.166Z,0.90
2022-08-22T10:45:47.123Z,1.00
2022-08-22T10:48:58.443Z,0.80
2022-08-22T10:52:14.810Z,0.85
2022-08-22T10:55:24.523Z,0.90
2022-08-22T10:58:07.530Z,1.15
2022-08-22T11:01:00.263Z,1.15
2022-08-22T11:04:20.123Z,0.95
2022-08-22T11:07:39.486Z,0.90
2022-08-22T11:10:39.894Z,1.02
2022-08-22T11:42:34.118Z,1.30
2022-08-22T11:45:05.349Z,1.10
2022-08-22T11:47:47.764Z,1.05
2022-08-22T11:51:03.794Z,1.10
2022-08-22T11:53:45.063Z,1.05
2022-08-22T11:56:43.662Z,0.80
2022-08-22T11:59:32.711Z,1.08
2022-08-22T12:02:19.587Z,1.20
2022-08-22T12:04:56.523Z,1.52
2022-08-22T12:07:31.355Z,1.00
2022-08-22T12:10:36.063Z,0.98
2022-08-22T12:13:21.389Z,1.00
2022-08-22T12:16:32.132Z,1.27
2022-08-22T12:20:15.189Z,0.98
2022-08-22T12:23:48.610Z,1.10
2022-08-22T12:26:32.952Z,1.27
2022-08-22T12:29:39.909Z,0.98
2022-08-22T12:33:03.330Z,1.33
2022-08-22T12:36:01.721Z,1.00
2022-08-22T12:38:46.328Z,1.17
2022-08-22T12:41:46.753Z,1.20
2022-08-22T12:47:48.100Z,1.40
2022-08-22T13:02:34.056Z,1.30
2022-08-22T13:08:22.255Z,1.10
2022-08-22T13:10:59.375Z,1.50
2022-08-22T13:13:38.578Z,1.02
2022-08-22T13:16:11.739Z,1.10
2022-08-22T13:18:53.584Z,1.17
2022-08-22T13:21:31.593Z,1.10
2022-08-22T13:24:38.883Z,1.38
2022-08-22T13:27:15.018Z,1.38
2022-08-22T13:29:53.422Z,1.35
2022-08-22T13:32:34.867Z,1.40
2022-08-22T13:35:02.786Z,1.63
2022-08-22T13:37:44.345Z,1.48
2022-08-22T13:40:21.535Z,1.30
2022-08-22T13:42:54.120Z,1.27
2022-08-22T13:45:29.468Z,1.60
2022-08-22T13:48:03.616Z,1.70
2022-08-22T13:50:53.685Z,2.05
2022-08-22T13:53:34.408Z,1.63
2022-08-22T13:56:18.795Z,1.35
2022-08-22T13:58:48.760Z,1.42
2022-08-22T14:01:40.919Z,1.90
2022-08-22T14:04:34.871Z,1.83
2022-08-22T14:07:31.722Z,1.50
2022-08-22T14:10:28.830Z,1.87
2022-08-22T14:13:41.926Z,1.43
2022-08-22T14:16:33.268Z,2.23
2022-08-22T14:19:08.391Z,1.53
2022-08-22T14:21:45.417Z,1.40
2022-08-22T14:24:45.725Z,1.47
2022-08-22T14:27:27.669Z,1.57
2022-08-22T14:30:01.548Z,1.20
2022-08-22T14:32:43.159Z,1.27
2022-08-22T14:35:37.962Z,1.33
2022-08-22T14:38:30.416Z,2.20
2022-08-22T14:41:11.126Z,1.30
2022-08-22T14:43:56.900Z,1.20
2022-08-22T14:46:30.096Z,2.03
2022-08-22T14:49:55.516Z,1.50
2022-08-22T14:52:49.166Z,2.03
2022-08-22T14:55:23.850Z,1.47
2022-08-22T14:58:03.574Z,1.83
2022-08-22T15:00:39.696Z,1.63
2022-08-22T15:03:32.960Z,1.73
2022-08-22T15:06:16.918Z,1.30
2022-08-22T15:08:50.774Z,1.60
2022-08-22T15:11:32.084Z,1.87
2022-08-22T15:14:42.649Z,1.50
2022-08-22T15:17:10.801Z,1.83
2022-08-22T15:19:44.364Z,1.80
2022-08-22T15:22:39.825Z,1.73
2022-08-22T15:25:20.315Z,2.70
2022-08-22T15:28:05.504Z,2.13
2022-08-22T15:30:49.015Z,1.83
2022-08-22T15:33:32.458Z,1.63
2022-08-22T15:36:16.441Z,1.97
2022-08-22T15:39:17.077Z,2.30
2022-08-22T15:41:47.850Z,1.93
2022-08-22T15:44:46.032Z,1.50
2022-08-22T15:47:47.114Z,2.00
2022-08-22T15:50:33.566Z,1.57
2022-08-22T15:53:22.045Z,1.70
2022-08-22T15:56:27.979Z,1.80
2022-08-22T15:59:26.119Z,1.80
2022-08-22T16:02:00.589Z,1.73
2022-08-22T16:05:15.343Z,2.17
2022-08-22T16:08:11.377Z,1.60
2022-08-22T16:10:50.498Z,2.03
2022-08-22T16:13:38.436Z,2.73
2022-08-22T16:16:56.188Z,1.97
2022-08-22T16:19:26.068Z,2.30
2022-08-22T16:22:11.026Z,2.10
2022-08-22T16:25:01.269Z,2.53
2022-08-22T16:27:29.468Z,2.00
2022-08-22T16:30:05.308Z,2.30
2022-08-22T16:32:33.553Z,1.80
2022-08-22T16:35:00.502Z,1.97
2022-08-22T16:37:41.495Z,2.03
2022-08-22T16:40:20.737Z,2.10
2022-08-22T16:42:53.034Z,1.80
2022-08-22T16:45:44.707Z,2.10
2022-08-22T16:48:30.018Z,2.40
2022-08-22T16:51:29.479Z,2.97
2022-08-22T16:54:11.283Z,2.00
2022-08-22T16:57:17.485Z,2.80
2022-08-22T16:59:56.215Z,2.30
2022-08-22T17:02:54.314Z,2.27
2022-08-22T17:06:10.603Z,1.83
2022-08-22T17:09:26.707Z,2.20
2022-08-22T17:12:40.268Z,2.50
2022-08-22T17:15:48.921Z,2.03
2022-08-22T17:18:55.285Z,2.00
2022-08-22T17:42:38.567Z,2.37
2022-08-22T17:45:27.714Z,2.50
2022-08-22T17:48:15.879Z,1.80
2022-08-22T17:50:55.130Z,3.90
2022-08-22T17:53:41.053Z,2.03
2022-08-22T17:56:24.245Z,2.33
2022-08-22T17:59:03.046Z,2.57
2022-08-22T18:01:46.226Z,2.10
2022-08-22T18:04:39.013Z,2.17
2022-08-22T18:07:28.710Z,2.37
2022-08-22T18:10:24.276Z,2.27
2022-08-22T18:13:30.948Z,2.30
2022-08-22T18:16:20.681Z,2.10
2022-08-22T18:19:13.551Z,2.43
2022-08-22T18:21:58.791Z,2.67
2022-08-22T18:24:51.436Z,2.20
2022-08-22T18:27:38.318Z,2.40
2022-08-22T18:30:15.565Z,1.93
2022-08-22T18:33:07.333Z,2.23
2022-08-22T18:35:53.762Z,2.00
2022-08-22T18:38:35.048Z,2.10
2022-08-22T18:41:42.962Z,2.37
2022-08-22T18:44:13.247Z,2.30
2022-08-22T18:46:51.630Z,2.30
2022-08-22T18:49:40.605Z,2.33
2022-08-22T18:52:17.991Z,2.10
2022-08-22T18:55:23.636Z,2.20
2022-08-22T18:58:39.484Z,2.40
2022-08-22T19:01:44.341Z,3.03
2022-08-22T19:04:55.906Z,2.73
2022-08-22T19:07:51.842Z,2.53
2022-08-22T19:10:48.976Z,2.83
2022-08-22T19:13:57.991Z,2.80
2022-08-22T19:17:11.911Z,2.03
2022-08-22T19:20:38.358Z,2.77
2022-08-22T19:23:52.720Z,3.00
2022-08-22T19:26:44.292Z,2.17
2022-08-22T19:29:57.750Z,1.73
2022-08-22T19:33:06.033Z,2.40
2022-08-22T19:36:04.847Z,2.50
2022-08-22T19:39:09.153Z,2.43
2022-08-22T19:42:00.196Z,2.57
2022-08-22T20:30:33.492Z,2.43
2022-08-22T20:33:18.567Z,2.53
2022-08-22T20:35:54.444Z,2.63
2022-08-22T20:38:26.354Z,2.27
2022-08-22T20:41:31.967Z,3.10
2022-08-22T20:44:13.789Z,2.70
2022-08-22T20:46:55.308Z,2.43
2022-08-22T20:49:32.368Z,2.57
2022-08-22T20:52:11.137Z,2.40
2022-08-22T20:54:40.915Z,2.77
2022-08-22T20:57:17.530Z,3.37
2022-08-22T20:59:55.099Z,3.10
2022-08-22T21:02:27.502Z,2.77
2022-08-22T21:05:05.613Z,2.90
2022-08-22T21:07:38.529Z,2.40
2022-08-22T21:10:42.430Z,2.83
2022-08-22T21:13:12.365Z,2.40
2022-08-22T21:16:15.810Z,2.90
2022-08-22T21:18:51.628Z,2.87
2022-08-22T21:21:31.034Z,3.17
2022-08-22T21:24:02.740Z,2.30
2022-08-22T21:26:51.439Z,3.07
2022-08-22T21:29:26.513Z,2.90
2022-08-22T21:32:38.370Z,3.03
2022-08-22T21:35:19.338Z,3.23
2022-08-22T21:37:47.233Z,2.60
2022-08-22T21:40:34.268Z,3.80
2022-08-22T21:43:26.695Z,3.40
2022-08-22T21:45:53.558Z,3.60
2022-08-22T21:48:39.542Z,3.20
2022-08-22T21:51:30.796Z,3.03
2022-08-22T21:54:20.839Z,3.30
2022-08-22T21:56:49.347Z,3.67
2022-08-22T21:59:50.798Z,4.10
2022-08-22T22:02:37.468Z,3.80
2022-08-22T22:05:17.735Z,3.67
2022-08-22T22:07:47.228Z,3.77
2022-08-22T22:10:18.424Z,3.23
2022-08-22T22:12:47.163Z,3.17
2022-08-22T22:15:19.238Z,3.30
2022-08-22T22:17:46.360Z,3.20
2022-08-22T22:20:16.234Z,3.47
2022-08-22T22:22:46.601Z,2.40
2022-08-22T22:25:40.509Z,3.13
2022-08-22T22:28:15.990Z,2.50
2022-08-22T22:30:44.203Z,2.83
2022-08-22T22:33:11.424Z,3.17
2022-08-22T22:35:40.252Z,2.60
2022-08-22T22:38:07.757Z,2.10
2022-08-22T22:40:35.245Z,2.80
2022-08-22T22:43:02.559Z,2.67
2022-08-22T22:45:29.631Z,2.43
2022-08-22T22:47:56.919Z,2.20
2022-08-22T22:50:24.535Z,2.90
2022-08-22T22:52:51.594Z,3.07
2022-08-22T22:55:24.923Z,2.80
2022-08-22T22:57:58.544Z,3.30
2022-08-22T23:00:31.556Z,2.73
2022-08-22T23:03:04.041Z,2.60
2022-08-22T23:05:31.853Z,2.93
2022-08-22T23:07:59.352Z,2.73
2022-08-22T23:10:27.799Z,3.10
2022-08-22T23:12:54.989Z,2.50
2022-08-22T23:15:24.752Z,2.80
2022-08-22T23:17:51.711Z,2.80
2022-08-22T23:20:19.058Z,2.97
2022-08-22T23:22:46.240Z,2.93
2022-08-22T23:25:13.491Z,3.37
2022-08-22T23:27:40.532Z,2.93
2022-08-22T23:30:09.166Z,3.60
2022-08-22T23:32:37.021Z,3.10
2022-08-22T23:35:04.853Z,3.07
2022-08-22T23:37:31.782Z,3.10
2022-08-22T23:39:58.734Z,3.10
2022-08-22T23:42:26.002Z,3.20
2022-08-22T23:44:52.909Z,3.10
2022-08-22T23:47:19.801Z,2.63
2022-08-22T23:49:46.716Z,3.63
2022-08-22T23:52:14.053Z,2.60
2022-08-22T23:54:40.904Z,2.83
2022-08-22T23:57:11.847Z,2.83
2022-08-22T23:59:46.207Z,2.80
